createdAt,value
2022-12-31T00:00:50.553Z,4.70
2022-12-31T00:03:18.690Z,3.50
2022-12-31T00:05:48.060Z,3.40
2022-12-31T00:08:16.085Z,2.78
2022-12-31T00:10:44.043Z,3.00
2022-12-31T00:13:13.799Z,3.38
2022-12-31T00:15:42.845Z,2.80
2022-12-31T00:18:11.666Z,2.33
2022-12-31T00:20:41.556Z,1.60
2022-12-31T00:23:11.672Z,1.85
2022-12-31T00:25:39.645Z,1.70
2022-12-31T00:28:07.630Z,2.20
2022-12-31T00:30:35.756Z,2.08
2022-12-31T00:33:03.834Z,2.00
2022-12-31T00:35:31.819Z,2.20
2022-12-31T00:37:59.780Z,2.40
2022-12-31T00:40:30.083Z,2.50
2022-12-31T00:42:58.082Z,2.92
2022-12-31T00:45:26.079Z,2.00
2022-12-31T00:47:54.082Z,2.30
2022-12-31T00:50:21.993Z,2.35
2022-12-31T00:52:49.958Z,1.50
2022-12-31T00:55:18.022Z,2.40
2022-12-31T00:57:47.380Z,2.25
2022-12-31T01:00:17.036Z,2.03
2022-12-31T01:02:45.135Z,1.85
2022-12-31T01:05:13.239Z,2.25
2022-12-31T01:07:41.247Z,1.70
2022-12-31T01:10:10.029Z,2.72
2022-12-31T01:12:38.077Z,2.50
2022-12-31T01:15:08.436Z,1.90
2022-12-31T01:17:36.407Z,1.80
2022-12-31T01:20:04.485Z,1.83
2022-12-31T01:22:32.450Z,2.40
2022-12-31T01:25:00.421Z,2.77
2022-12-31T01:27:28.377Z,2.22
2022-12-31T01:29:56.385Z,1.60
2022-12-31T01:32:25.754Z,1.90
2022-12-31T01:34:53.848Z,1.90
2022-12-31T01:37:21.787Z,2.07
2022-12-31T01:39:49.763Z,2.22
2022-12-31T01:42:17.708Z,2.33
2022-12-31T01:44:50.586Z,2.40
2022-12-31T01:47:27.045Z,2.85
2022-12-31T01:50:00.433Z,2.00
2022-12-31T01:52:31.790Z,2.40
2022-12-31T01:55:04.734Z,2.65
2022-12-31T01:57:33.486Z,2.47
2022-12-31T02:00:02.865Z,2.35
2022-12-31T02:02:31.044Z,2.20
2022-12-31T02:05:03.623Z,2.33
2022-12-31T02:07:31.987Z,2.55
2022-12-31T02:10:00.720Z,1.40
2022-12-31T02:12:28.713Z,2.00
2022-12-31T02:14:57.507Z,1.17
2022-12-31T02:17:33.320Z,1.23
2022-12-31T02:20:32.982Z,2.27
2022-12-31T02:23:36.261Z,1.70
2022-12-31T02:26:22.603Z,1.70
2022-12-31T02:29:18.238Z,1.80
2022-12-31T02:31:51.983Z,1.90
2022-12-31T02:34:28.611Z,1.30
2022-12-31T02:36:58.979Z,2.20
2022-12-31T02:39:27.759Z,1.70
2022-12-31T02:41:56.056Z,1.50
2022-12-31T02:44:26.183Z,1.60
2022-12-31T02:47:07.130Z,1.60
2022-12-31T02:49:41.061Z,1.48
2022-12-31T02:52:15.916Z,2.20
2022-12-31T02:54:52.281Z,1.50
2022-12-31T02:57:30.671Z,2.42
2022-12-31T03:00:20.068Z,1.30
2022-12-31T03:02:51.697Z,1.20
2022-12-31T03:05:24.054Z,2.65
2022-12-31T03:07:52.161Z,2.28
2022-12-31T03:10:20.330Z,1.90
2022-12-31T03:12:48.253Z,2.40
2022-12-31T03:15:22.893Z,2.10
2022-12-31T03:17:54.888Z,2.20
2022-12-31T03:20:43.038Z,3.00
2022-12-31T03:23:14.741Z,2.80
2022-12-31T03:25:42.858Z,3.05
2022-12-31T03:28:13.458Z,2.67
2022-12-31T03:30:44.421Z,2.85
2022-12-31T03:33:13.839Z,3.70
2022-12-31T03:35:44.471Z,3.70
2022-12-31T03:38:12.663Z,2.50
2022-12-31T03:40:42.404Z,2.45
2022-12-31T03:43:10.671Z,2.90
2022-12-31T03:45:39.303Z,2.70
2022-12-31T03:48:09.414Z,2.60
2022-12-31T03:50:38.728Z,1.98
2022-12-31T03:53:06.765Z,2.30
2022-12-31T03:55:34.726Z,1.60
2022-12-31T03:58:02.654Z,2.00
2022-12-31T04:00:30.897Z,2.22
2022-12-31T04:02:58.897Z,2.25
2022-12-31T04:05:27.025Z,1.50
2022-12-31T04:07:56.560Z,1.35
2022-12-31T04:10:24.593Z,1.60
2022-12-31T04:12:52.615Z,2.33
2022-12-31T04:15:22.278Z,2.28
2022-12-31T04:17:50.461Z,2.00
2022-12-31T04:20:18.543Z,1.98
2022-12-31T04:22:46.516Z,1.30
2022-12-31T04:25:15.858Z,2.13
2022-12-31T04:27:44.543Z,2.25
2022-12-31T04:30:14.165Z,2.03
2022-12-31T04:32:42.509Z,1.83
2022-12-31T04:35:11.068Z,1.40
2022-12-31T04:37:39.180Z,1.70
2022-12-31T04:40:08.749Z,1.90
2022-12-31T04:42:38.299Z,2.90
2022-12-31T04:45:07.289Z,1.10
2022-12-31T04:47:35.364Z,1.95
2022-12-31T04:50:03.413Z,1.60
2022-12-31T04:52:34.541Z,1.90
2022-12-31T04:55:05.659Z,2.50
2022-12-31T04:57:33.782Z,2.00
2022-12-31T05:00:03.855Z,2.40
2022-12-31T05:02:31.949Z,2.20
2022-12-31T05:04:59.987Z,2.78
2022-12-31T05:07:27.958Z,3.40
2022-12-31T05:09:55.868Z,2.50
2022-12-31T05:12:23.875Z,2.90
2022-12-31T05:14:51.802Z,2.80
2022-12-31T05:17:21.753Z,3.80
2022-12-31T05:19:49.744Z,2.88
2022-12-31T05:22:32.745Z,3.00
2022-12-31T05:25:01.601Z,3.40
2022-12-31T05:27:31.983Z,4.07
2022-12-31T05:30:00.216Z,3.10
2022-12-31T05:32:29.729Z,3.37
2022-12-31T05:34:59.585Z,3.22
2022-12-31T05:37:28.531Z,4.10
2022-12-31T05:39:56.605Z,2.63
2022-12-31T05:42:25.110Z,2.40
2022-12-31T05:44:53.009Z,2.30
2022-12-31T05:47:20.977Z,2.00
2022-12-31T05:49:50.280Z,2.40
2022-12-31T05:52:18.345Z,1.40
2022-12-31T05:54:46.301Z,1.02
2022-12-31T05:57:14.699Z,1.60
2022-12-31T05:59:42.671Z,1.35
2022-12-31T06:02:10.701Z,1.40
2022-12-31T06:04:38.706Z,1.63
2022-12-31T06:07:07.990Z,0.80
2022-12-31T06:09:35.919Z,1.20
2022-12-31T06:12:03.891Z,0.90
2022-12-31T06:14:31.941Z,1.00
2022-12-31T06:16:59.883Z,1.30
2022-12-31T06:19:27.869Z,1.50
2022-12-31T06:21:55.911Z,0.80
2022-12-31T06:24:25.245Z,1.10
2022-12-31T06:26:53.186Z,1.00
2022-12-31T06:29:21.176Z,1.20
2022-12-31T06:31:49.155Z,2.20
2022-12-31T06:34:17.116Z,2.38
2022-12-31T06:36:45.090Z,1.92
2022-12-31T06:39:13.022Z,1.90
2022-12-31T06:41:42.327Z,2.53
2022-12-31T06:44:10.340Z,1.95
2022-12-31T06:46:38.338Z,3.00
2022-12-31T06:49:06.368Z,3.20
2022-12-31T06:51:34.339Z,2.45
2022-12-31T06:54:02.500Z,2.00
2022-12-31T06:56:34.535Z,2.50
2022-12-31T06:59:05.346Z,1.77
2022-12-31T07:01:48.590Z,2.25
2022-12-31T07:04:37.753Z,1.60
2022-12-31T07:07:09.293Z,1.23
2022-12-31T07:09:45.906Z,1.65
2022-12-31T07:12:26.173Z,1.20
2022-12-31T07:15:02.983Z,1.50
2022-12-31T07:17:38.507Z,1.13
2022-12-31T07:20:11.638Z,0.80
2022-12-31T07:22:40.294Z,1.13
2022-12-31T07:25:13.387Z,0.70
2022-12-31T07:27:54.038Z,1.65
2022-12-31T07:30:25.703Z,1.60
2022-12-31T07:33:09.957Z,0.80
2022-12-31T07:35:46.020Z,1.10
2022-12-31T07:38:23.545Z,0.80
2022-12-31T07:41:09.436Z,1.02
2022-12-31T07:43:49.843Z,1.80
2022-12-31T07:46:27.255Z,1.10
2022-12-31T07:48:56.112Z,1.60
2022-12-31T07:51:24.614Z,1.40
2022-12-31T07:53:52.565Z,1.20
2022-12-31T07:56:20.500Z,1.83
2022-12-31T07:59:02.463Z,2.10
2022-12-31T08:01:44.611Z,2.08
2022-12-31T08:04:22.227Z,1.50
2022-12-31T08:07:02.216Z,1.30
2022-12-31T08:09:40.665Z,1.70
2022-12-31T08:12:09.900Z,1.70
2022-12-31T08:14:44.790Z,1.70
2022-12-31T08:17:17.644Z,0.88
2022-12-31T08:19:46.723Z,1.50
2022-12-31T08:22:37.083Z,1.40
2022-12-31T08:25:15.504Z,1.35
2022-12-31T08:27:51.557Z,1.88
2022-12-31T08:30:22.265Z,1.38
2022-12-31T08:33:00.846Z,1.50
2022-12-31T08:35:40.450Z,1.20
2022-12-31T08:38:18.050Z,2.00
2022-12-31T08:40:53.326Z,1.70
2022-12-31T08:43:36.131Z,1.20
2022-12-31T08:46:05.437Z,1.23
2022-12-31T08:48:40.081Z,1.60
2022-12-31T08:51:13.981Z,1.50
2022-12-31T08:53:42.722Z,1.50
2022-12-31T08:56:18.106Z,2.08
2022-12-31T08:58:54.754Z,2.30
2022-12-31T09:01:27.249Z,2.20
2022-12-31T09:04:13.283Z,1.83
2022-12-31T09:06:45.317Z,1.88
2022-12-31T09:09:19.870Z,1.70
2022-12-31T09:11:55.323Z,1.83
2022-12-31T09:14:41.462Z,1.98
2022-12-31T09:17:23.654Z,1.65
2022-12-31T09:19:53.581Z,1.50
2022-12-31T09:22:21.933Z,1.60
2022-12-31T09:24:50.560Z,1.40
2022-12-31T09:27:27.436Z,1.98
2022-12-31T09:30:03.921Z,2.20
2022-12-31T09:32:42.711Z,1.70
2022-12-31T09:35:23.102Z,1.33
2022-12-31T09:37:55.730Z,1.40
2022-12-31T09:41:03.309Z,1.10
2022-12-31T09:44:09.168Z,1.65
2022-12-31T09:46:57.238Z,2.33
2022-12-31T09:50:06.547Z,2.50
2022-12-31T09:52:59.327Z,2.07
2022-12-31T09:55:34.390Z,2.50
2022-12-31T09:58:12.851Z,2.00
2022-12-31T10:00:45.056Z,1.70
2022-12-31T10:03:37.729Z,2.13
2022-12-31T10:06:18.913Z,2.17
2022-12-31T10:09:14.740Z,1.73
2022-12-31T10:12:03.330Z,1.50
2022-12-31T10:14:56.723Z,1.73
2022-12-31T10:17:42.988Z,2.25
2022-12-31T10:20:26.378Z,2.05
2022-12-31T10:23:19.527Z,1.77
2022-12-31T10:26:20.309Z,1.73
2022-12-31T10:28:56.189Z,2.30
2022-12-31T10:31:40.650Z,2.50
2022-12-31T10:34:27.575Z,1.65
2022-12-31T10:36:59.001Z,2.28
2022-12-31T10:39:43.980Z,2.83
2022-12-31T10:42:47.861Z,3.40
2022-12-31T10:45:42.071Z,4.50
2022-12-31T10:48:55.876Z,14.75
2022-12-31T10:51:48.943Z,4.33
2022-12-31T10:54:58.120Z,2.20
2022-12-31T10:58:08.552Z,1.88
2022-12-31T11:00:48.751Z,2.40
2022-12-31T11:03:58.719Z,11.40
2022-12-31T11:07:00.084Z,2.83
2022-12-31T11:10:02.731Z,1.40
2022-12-31T11:13:04.863Z,1.10
2022-12-31T11:15:51.667Z,1.75
2022-12-31T11:18:28.437Z,1.98
2022-12-31T11:21:14.138Z,1.75
2022-12-31T11:23:52.875Z,1.42
2022-12-31T11:26:33.107Z,2.00
2022-12-31T11:29:28.577Z,1.40
2022-12-31T11:32:08.436Z,2.20
2022-12-31T11:35:05.669Z,3.10
2022-12-31T11:37:42.394Z,2.70
2022-12-31T11:40:33.451Z,2.95
2022-12-31T11:43:05.547Z,2.70
2022-12-31T11:45:50.691Z,2.72
2022-12-31T11:48:31.251Z,3.58
2022-12-31T11:51:14.531Z,2.78
2022-12-31T11:54:13.337Z,2.90
2022-12-31T11:56:43.556Z,3.53
2022-12-31T11:59:18.950Z,2.80
2022-12-31T12:01:55.376Z,2.70
2022-12-31T12:04:23.406Z,2.58
2022-12-31T12:06:52.701Z,2.23
2022-12-31T12:09:27.189Z,2.13
2022-12-31T12:12:01.302Z,3.70
2022-12-31T12:14:33.748Z,2.55
2022-12-31T12:17:05.612Z,2.53
2022-12-31T12:19:35.627Z,3.20
2022-12-31T12:22:11.662Z,3.83
2022-12-31T12:24:39.782Z,3.27
2022-12-31T12:27:23.335Z,3.00
2022-12-31T12:29:51.286Z,2.50
2022-12-31T12:32:21.986Z,2.05
2022-12-31T12:34:50.379Z,2.03
2022-12-31T12:37:28.225Z,2.30
2022-12-31T12:40:02.055Z,3.35
2022-12-31T12:42:30.838Z,3.08
2022-12-31T12:45:12.093Z,2.58
2022-12-31T12:47:43.570Z,2.58
2022-12-31T12:50:16.817Z,2.30
2022-12-31T12:52:59.632Z,2.30
2022-12-31T12:55:39.020Z,3.30
2022-12-31T12:58:19.357Z,2.97
2022-12-31T13:00:52.436Z,2.00
2022-12-31T13:04:32.980Z,2.90
2022-12-31T13:07:02.793Z,3.40
2022-12-31T13:09:47.390Z,3.45
2022-12-31T13:12:20.502Z,3.50
2022-12-31T13:14:58.577Z,3.60
2022-12-31T13:17:54.122Z,2.90
2022-12-31T13:20:31.519Z,2.67
2022-12-31T13:23:10.640Z,3.20
2022-12-31T13:25:52.179Z,2.67
2022-12-31T13:28:20.878Z,3.53
2022-12-31T13:30:51.816Z,2.90
2022-12-31T13:33:23.259Z,2.90
2022-12-31T13:35:55.159Z,2.97
2022-12-31T13:38:28.571Z,2.83
2022-12-31T13:41:03.462Z,2.80
2022-12-31T13:43:39.207Z,3.72
2022-12-31T13:46:15.412Z,3.58
2022-12-31T13:48:49.520Z,3.00
2022-12-31T13:51:25.481Z,2.90
2022-12-31T13:54:02.137Z,3.60
2022-12-31T13:56:37.321Z,4.00
2022-12-31T13:59:14.699Z,3.97
2022-12-31T14:01:46.273Z,2.85
2022-12-31T14:04:19.424Z,2.42
2022-12-31T14:06:52.794Z,2.45
2022-12-31T14:09:24.764Z,3.22
2022-12-31T14:12:23.795Z,2.85
2022-12-31T14:14:59.938Z,2.30
2022-12-31T14:17:36.388Z,3.17
2022-12-31T14:20:15.913Z,2.78
2022-12-31T14:22:49.566Z,2.47
2022-12-31T14:25:24.972Z,3.58
2022-12-31T14:27:55.736Z,3.08
2022-12-31T14:30:26.871Z,3.10
2022-12-31T14:33:10.698Z,2.47
2022-12-31T14:36:10.444Z,2.22
2022-12-31T14:38:53.203Z,3.10
2022-12-31T14:41:39.480Z,3.83
2022-12-31T14:44:25.245Z,4.03
2022-12-31T14:47:06.757Z,2.90
2022-12-31T14:49:45.731Z,2.70
2022-12-31T14:52:26.287Z,7.32
2022-12-31T14:55:02.716Z,43.87
2022-12-31T14:58:09.743Z,19.45
2022-12-31T15:00:30.941Z,9.45
2022-12-31T15:03:01.004Z,5.20
2022-12-31T15:05:30.711Z,4.75
2022-12-31T15:08:17.146Z,3.63
2022-12-31T15:10:59.469Z,3.88
2022-12-31T15:13:37.953Z,4.77
2022-12-31T15:16:19.483Z,5.20
2022-12-31T15:19:06.579Z,4.40
2022-12-31T15:21:41.645Z,4.00
2022-12-31T15:24:20.414Z,5.20
2022-12-31T15:26:51.389Z,6.00
2022-12-31T15:29:28.391Z,6.37
2022-12-31T15:31:57.510Z,4.95
2022-12-31T15:34:29.531Z,5.65
2022-12-31T15:36:59.671Z,5.20
2022-12-31T15:39:39.148Z,5.50
2022-12-31T15:42:39.177Z,5.38
2022-12-31T15:45:18.191Z,5.45
2022-12-31T15:47:49.878Z,5.82
2022-12-31T15:50:21.338Z,5.70
2022-12-31T15:52:54.887Z,4.72
2022-12-31T15:55:29.962Z,4.70
2022-12-31T15:58:02.413Z,5.00
2022-12-31T16:00:45.736Z,5.57
2022-12-31T16:03:22.708Z,6.00
2022-12-31T16:05:51.397Z,6.80
2022-12-31T16:08:22.524Z,6.35
2022-12-31T16:10:50.715Z,6.80
2022-12-31T16:13:23.082Z,7.55
2022-12-31T16:15:58.707Z,9.00
2022-12-31T16:18:26.830Z,10.25
2022-12-31T16:20:54.852Z,8.60
2022-12-31T16:23:27.421Z,7.65
2022-12-31T16:26:00.769Z,7.95
2022-12-31T16:28:31.348Z,7.10
2022-12-31T16:31:04.030Z,7.18
2022-12-31T16:33:32.696Z,6.90
2022-12-31T16:36:02.409Z,7.32
2022-12-31T16:38:34.921Z,7.72
2022-12-31T16:41:17.527Z,7.65
2022-12-31T16:43:46.793Z,7.03
2022-12-31T16:46:20.288Z,7.18
2022-12-31T16:48:52.863Z,7.70
2022-12-31T16:51:24.994Z,7.30
2022-12-31T16:53:53.413Z,8.13
2022-12-31T16:56:27.252Z,7.35
2022-12-31T16:59:02.391Z,6.50
2022-12-31T17:01:35.303Z,7.80
2022-12-31T17:04:07.057Z,7.20
2022-12-31T17:06:35.017Z,6.80
2022-12-31T17:09:13.935Z,13.10
2022-12-31T17:11:52.989Z,9.82
2022-12-31T17:14:23.648Z,8.77
2022-12-31T17:17:03.088Z,8.20
2022-12-31T17:19:44.861Z,7.00
2022-12-31T17:22:21.714Z,7.30
2022-12-31T17:24:53.867Z,10.20
2022-12-31T17:27:21.853Z,20.63
2022-12-31T17:29:49.855Z,13.63
2022-12-31T17:32:31.311Z,10.55
2022-12-31T17:34:59.271Z,8.43
2022-12-31T17:37:29.117Z,7.20
2022-12-31T17:40:17.495Z,7.53
2022-12-31T17:42:49.364Z,7.63
2022-12-31T17:45:21.411Z,6.28
2022-12-31T17:47:53.919Z,7.10
2022-12-31T17:50:24.415Z,6.60
2022-12-31T17:52:56.791Z,6.27
2022-12-31T17:55:24.923Z,6.90
2022-12-31T17:57:55.072Z,7.30
2022-12-31T18:00:25.464Z,8.10
2022-12-31T18:02:54.994Z,6.82
2022-12-31T18:05:24.868Z,6.30
2022-12-31T18:07:53.595Z,7.38
2022-12-31T18:10:25.637Z,6.40
2022-12-31T18:13:01.064Z,6.46
2022-12-31T18:15:29.077Z,7.80
2022-12-31T18:17:58.455Z,7.60
2022-12-31T18:20:27.518Z,6.55
2022-12-31T18:22:55.999Z,6.90
2022-12-31T18:25:25.340Z,7.72
2022-12-31T18:27:53.644Z,9.75
2022-12-31T18:30:23.408Z,9.13
2022-12-31T18:32:51.476Z,7.80
2022-12-31T18:35:57.780Z,9.27
2022-12-31T18:38:13.245Z,8.27
2022-12-31T18:40:44.378Z,7.60
2022-12-31T18:43:17.534Z,6.75
2022-12-31T18:45:45.799Z,8.20
2022-12-31T18:48:14.331Z,6.77
2022-12-31T18:50:43.829Z,7.75
2022-12-31T18:53:17.414Z,7.43
2022-12-31T18:55:48.748Z,6.55
2022-12-31T18:58:16.947Z,6.10
2022-12-31T19:00:45.682Z,6.10
2022-12-31T19:03:19.747Z,6.77
2022-12-31T19:05:50.897Z,6.22
2022-12-31T19:08:19.462Z,6.47
2022-12-31T19:10:48.037Z,5.53
2022-12-31T19:13:18.078Z,6.03
2022-12-31T19:15:47.509Z,6.55
2022-12-31T19:18:15.835Z,5.72
2022-12-31T19:20:44.042Z,6.00
2022-12-31T19:23:18.024Z,6.33
2022-12-31T19:25:47.542Z,7.47
2022-12-31T19:28:18.196Z,7.10
2022-12-31T19:30:46.811Z,9.50
2022-12-31T19:33:15.328Z,18.20
2022-12-31T19:35:43.608Z,10.20
2022-12-31T19:38:19.975Z,8.93
2022-12-31T19:40:48.929Z,7.70
2022-12-31T19:43:18.813Z,6.72
2022-12-31T19:45:47.412Z,7.30
2022-12-31T19:48:18.512Z,6.07
2022-12-31T19:50:49.493Z,6.22
2022-12-31T19:53:21.238Z,6.10
2022-12-31T19:55:49.691Z,5.47
2022-12-31T19:58:19.735Z,6.25
2022-12-31T20:00:55.603Z,6.80
2022-12-31T20:03:26.760Z,6.93
2022-12-31T20:06:03.106Z,7.18
2022-12-31T20:08:32.396Z,8.88
2022-12-31T20:11:07.596Z,7.10
2022-12-31T20:13:35.961Z,6.85
2022-12-31T20:16:04.113Z,7.80
2022-12-31T20:18:32.100Z,7.13
2022-12-31T20:21:00.114Z,7.38
2022-12-31T20:23:28.123Z,7.40
2022-12-31T20:26:01.118Z,8.05
2022-12-31T20:28:29.824Z,7.75
2022-12-31T20:30:57.906Z,8.13
2022-12-31T20:33:25.980Z,8.23
2022-12-31T20:35:53.974Z,6.68
2022-12-31T20:38:21.967Z,6.03
2022-12-31T20:40:49.923Z,7.40
2022-12-31T20:43:19.282Z,6.95
2022-12-31T20:45:47.800Z,10.52
2022-12-31T20:48:15.742Z,9.93
2022-12-31T20:50:43.684Z,8.63
2022-12-31T20:53:11.646Z,7.65
2022-12-31T20:55:39.583Z,8.40
2022-12-31T20:58:07.554Z,8.63
2022-12-31T21:00:36.881Z,7.93
2022-12-31T21:03:14.647Z,7.43
2022-12-31T21:05:53.689Z,7.20
2022-12-31T21:08:22.239Z,6.80
2022-12-31T21:10:51.401Z,8.17
2022-12-31T21:13:21.610Z,9.37
2022-12-31T21:15:51.199Z,8.00
2022-12-31T21:18:19.734Z,8.50
2022-12-31T21:20:48.250Z,8.40
2022-12-31T21:23:16.252Z,7.90
2022-12-31T21:25:44.840Z,8.18
2022-12-31T21:28:14.164Z,8.50
2022-12-31T21:30:42.891Z,7.50
2022-12-31T21:33:12.223Z,8.00
2022-12-31T21:35:43.716Z,7.32
2022-12-31T21:38:14.890Z,6.70
2022-12-31T21:40:44.754Z,7.00
2022-12-31T21:43:12.951Z,6.80
2022-12-31T21:45:41.407Z,7.55
2022-12-31T21:48:24.893Z,7.67
2022-12-31T21:50:54.614Z,7.40
2022-12-31T21:53:27.953Z,7.00
2022-12-31T21:56:14.468Z,6.97
2022-12-31T21:58:44.606Z,6.80
2022-12-31T22:01:35.167Z,8.60
2022-12-31T22:04:05.439Z,8.73
2022-12-31T22:06:36.762Z,9.63
2022-12-31T22:09:04.903Z,9.20
2022-12-31T22:11:32.838Z,9.60
2022-12-31T22:14:00.789Z,8.70
2022-12-31T22:16:28.895Z,11.82
2022-12-31T22:18:57.543Z,9.73
2022-12-31T22:21:27.599Z,8.07
2022-12-31T22:23:58.631Z,6.47
2022-12-31T22:26:28.811Z,7.60
2022-12-31T22:28:59.410Z,7.57
2022-12-31T22:31:30.885Z,7.00
2022-12-31T22:33:59.697Z,8.02
2022-12-31T22:36:29.025Z,7.47
2022-12-31T22:38:58.631Z,7.47
2022-12-31T22:41:27.434Z,6.80
2022-12-31T22:44:03.139Z,7.50
2022-12-31T22:46:32.489Z,7.23
2022-12-31T22:49:02.271Z,7.40
2022-12-31T22:51:54.760Z,7.00
2022-12-31T22:54:20.368Z,7.50
2022-12-31T22:56:48.486Z,7.30
2022-12-31T22:59:16.455Z,8.40
2022-12-31T23:01:44.721Z,8.88
2022-12-31T23:04:12.977Z,8.73
2022-12-31T23:06:47.368Z,8.17
2022-12-31T23:09:35.017Z,10.05
2022-12-31T23:12:03.524Z,14.40
2022-12-31T23:14:48.921Z,19.50
2022-12-31T23:17:36.400Z,28.27
2022-12-31T23:20:23.834Z,35.35
2022-12-31T23:23:11.539Z,35.35
2022-12-31T23:25:42.066Z,38.15
2022-12-31T23:28:11.817Z,38.20
2022-12-31T23:30:40.569Z,37.45
2022-12-31T23:33:09.712Z,37.20
2022-12-31T23:35:37.618Z,37.70
2022-12-31T23:38:06.987Z,40.42
2022-12-31T23:40:37.831Z,39.17
2022-12-31T23:43:07.655Z,37.10
2022-12-31T23:45:37.099Z,40.47
2022-12-31T23:48:05.581Z,43.83
2022-12-31T23:50:33.506Z,46.73
2022-12-31T23:53:01.480Z,43.80
2022-12-31T23:55:30.807Z,43.85
2022-12-31T23:57:58.716Z,36.90
